Terminal Aerodrome Forecast
Issued by NWS Memphis, TN

Home | Current Version | Previous Version | Text Only | Print | Product List | Glossary On
Versions: 1 2 3 4 5 6 7 8 9 10 11 12 13 14 15 16 17 18 19 20 21 22 23 24 25
444
FTUS44 KMEG 161743
TAFMEM
TAF
KMEM 161743Z 1618/1724 20010G16KT P6SM SCT250
     FM162300 18006KT P6SM SCT150 BKN250
     FM170400 17004KT P6SM VCSH BKN100
     FM170800 15004KT 6SM -SHRA BR SCT035 BKN050
     FM171100 12005KT 4SM SHRA BR OVC015
     FM171500 14006KT P6SM VCSH OVC020
     FM171800 21006KT P6SM BKN025=

USA.gov is the U.S. government's official web portal to all federal, state and local government web resources and services.